createdAt,value
2019-01-17T00:01:03.438Z,88.14
2019-01-17T00:03:49.318Z,88.26
2019-01-17T00:06:39.098Z,87.93
2019-01-17T00:09:25.408Z,88.10
2019-01-17T00:12:12.402Z,87.86
2019-01-17T00:15:08.173Z,87.62
2019-01-17T00:17:47.947Z,87.40
2019-01-17T00:20:28.301Z,87.51
2019-01-17T00:23:27.457Z,87.30
2019-01-17T00:26:17.438Z,87.15
2019-01-17T00:29:10.966Z,87.16
2019-01-17T00:32:00.676Z,87.47
2019-01-17T00:34:48.541Z,87.41
2019-01-17T00:37:34.429Z,87.58
2019-01-17T00:40:24.100Z,87.10
2019-01-17T00:43:09.504Z,87.30
2019-01-17T00:46:14.599Z,87.83
2019-01-17T00:49:04.437Z,88.27
2019-01-17T00:51:57.618Z,88.02
2019-01-17T00:54:56.740Z,87.50
2019-01-17T00:57:52.687Z,87.16
2019-01-17T01:00:39.685Z,86.72
2019-01-17T01:03:41.764Z,87.21
2019-01-17T01:06:27.743Z,86.98
2019-01-17T01:09:14.920Z,87.56
2019-01-17T01:11:58.105Z,88.16
2019-01-17T01:14:42.596Z,88.85
2019-01-17T01:17:30.416Z,88.83
2019-01-17T01:20:15.117Z,88.83
2019-01-17T01:23:02.244Z,89.04
2019-01-17T01:25:48.019Z,89.04
2019-01-17T01:28:39.780Z,89.59
2019-01-17T01:31:24.789Z,89.59
2019-01-17T01:33:58.872Z,89.65
2019-01-17T01:36:44.556Z,89.71
2019-01-17T01:39:31.550Z,89.38
2019-01-17T01:42:35.682Z,88.88
2019-01-17T01:45:26.416Z,88.06
2019-01-17T01:48:11.858Z,88.25
2019-01-17T01:51:17.116Z,87.62
2019-01-17T01:53:44.685Z,87.56
2019-01-17T01:56:12.180Z,87.56
2019-01-17T01:58:39.741Z,87.88
2019-01-17T02:01:07.323Z,87.78
2019-01-17T02:03:34.862Z,87.63
2019-01-17T02:06:02.493Z,87.58
2019-01-17T02:08:30.155Z,87.45
2019-01-17T02:10:57.781Z,86.59
2019-01-17T02:13:25.348Z,87.81
2019-01-17T02:15:52.929Z,87.81
2019-01-17T02:18:20.468Z,88.02
2019-01-17T02:20:47.997Z,87.88
2019-01-17T02:23:15.729Z,87.62
2019-01-17T02:25:43.180Z,88.34
2019-01-17T02:28:10.708Z,88.34
2019-01-17T02:30:38.393Z,88.39
2019-01-17T02:33:05.970Z,87.99
2019-01-17T02:35:33.500Z,87.99
2019-01-17T02:38:00.978Z,88.12
2019-01-17T02:40:28.445Z,88.29
2019-01-17T02:42:55.891Z,88.29
2019-01-17T02:45:23.420Z,88.32
2019-01-17T02:47:50.849Z,87.91
2019-01-17T02:50:18.263Z,87.91
2019-01-17T02:52:45.701Z,87.82
2019-01-17T02:55:13.234Z,87.72
2019-01-17T02:57:40.718Z,87.68
2019-01-17T03:00:12.170Z,87.86
2019-01-17T03:02:39.599Z,87.86
2019-01-17T03:05:07.151Z,87.83
2019-01-17T03:07:34.569Z,87.81
2019-01-17T03:10:02.187Z,88.04
2019-01-17T03:12:29.625Z,88.40
2019-01-17T03:14:57.067Z,88.49
2019-01-17T03:17:24.516Z,88.38
2019-01-17T03:19:51.958Z,88.39
2019-01-17T03:22:19.381Z,88.02
2019-01-17T03:24:46.828Z,88.12
2019-01-17T03:27:14.199Z,88.03
2019-01-17T03:29:41.579Z,88.07
2019-01-17T03:32:09.156Z,87.79
2019-01-17T03:34:36.587Z,87.79
2019-01-17T03:37:04.081Z,87.58
2019-01-17T03:39:31.539Z,87.84
2019-01-17T03:41:58.968Z,87.74
2019-01-17T03:44:26.354Z,87.43
2019-01-17T03:46:53.810Z,87.04
2019-01-17T03:49:21.251Z,87.04
2019-01-17T03:51:48.812Z,87.45
2019-01-17T03:54:16.227Z,87.74
2019-01-17T03:56:43.689Z,87.85
2019-01-17T03:59:11.172Z,87.89
2019-01-17T04:01:38.625Z,87.85
2019-01-17T04:04:06.161Z,87.85
2019-01-17T04:06:33.610Z,88.54
2019-01-17T04:09:01.008Z,88.17
2019-01-17T04:11:28.443Z,88.17
2019-01-17T04:13:55.919Z,87.90
2019-01-17T04:16:23.353Z,87.90
2019-01-17T04:18:51.327Z,87.34
2019-01-17T04:21:18.784Z,87.37
2019-01-17T04:23:46.158Z,87.41
2019-01-17T04:26:15.669Z,87.49
2019-01-17T04:28:43.107Z,87.92
2019-01-17T04:31:10.533Z,87.67
2019-01-17T04:33:38.027Z,87.67
2019-01-17T04:36:05.588Z,87.59
2019-01-17T04:38:33.029Z,87.59
2019-01-17T04:41:00.519Z,87.70
2019-01-17T04:43:27.932Z,87.70
2019-01-17T04:45:55.407Z,87.98
2019-01-17T04:48:22.844Z,87.91
2019-01-17T04:50:50.266Z,87.40
2019-01-17T04:53:17.727Z,87.39
2019-01-17T04:55:45.127Z,87.39
2019-01-17T04:58:12.607Z,87.38
2019-01-17T05:00:40.149Z,87.59
2019-01-17T05:03:07.611Z,87.76
2019-01-17T05:05:35.027Z,87.36
2019-01-17T05:08:02.654Z,86.95
2019-01-17T05:10:30.042Z,86.68
2019-01-17T05:12:57.491Z,87.63
2019-01-17T05:15:24.963Z,87.30
2019-01-17T05:17:52.401Z,88.23
2019-01-17T05:20:19.799Z,87.85
2019-01-17T05:22:47.371Z,87.80
2019-01-17T05:25:14.899Z,88.50
2019-01-17T05:27:42.849Z,87.78
2019-01-17T05:30:13.087Z,87.78
2019-01-17T05:32:40.484Z,87.77
2019-01-17T05:35:07.989Z,88.21
2019-01-17T05:37:35.470Z,88.21
2019-01-17T05:40:03.776Z,88.56
2019-01-17T05:42:31.239Z,87.92
2019-01-17T05:44:58.726Z,87.87
2019-01-17T05:47:26.154Z,88.23
2019-01-17T05:49:53.642Z,88.23
2019-01-17T05:52:21.280Z,87.79
2019-01-17T05:54:48.727Z,87.86
2019-01-17T05:57:17.688Z,87.44
2019-01-17T05:59:45.111Z,88.08
2019-01-17T06:02:12.593Z,87.73
2019-01-17T06:04:40.075Z,87.69
2019-01-17T06:07:07.482Z,88.05
2019-01-17T06:09:37.014Z,88.05
2019-01-17T06:12:04.479Z,87.41
2019-01-17T06:14:31.906Z,87.66
2019-01-17T06:16:59.388Z,87.40
2019-01-17T06:19:26.839Z,87.46
2019-01-17T06:21:54.324Z,87.34
2019-01-17T06:24:21.795Z,87.61
2019-01-17T06:26:49.630Z,87.85
2019-01-17T06:29:17.040Z,87.79
2019-01-17T06:31:44.623Z,87.38
2019-01-17T06:34:12.064Z,87.22
2019-01-17T06:36:39.544Z,87.49
2019-01-17T06:39:07.871Z,87.49
2019-01-17T06:41:35.357Z,87.51
2019-01-17T06:44:02.871Z,87.51
2019-01-17T06:46:30.267Z,87.39
2019-01-17T06:48:57.891Z,87.52
2019-01-17T06:51:25.315Z,87.60
2019-01-17T06:53:52.707Z,87.95
2019-01-17T06:56:20.171Z,87.72
2019-01-17T06:58:47.563Z,87.85
2019-01-17T07:01:15.124Z,87.85
2019-01-17T07:03:42.622Z,87.74
2019-01-17T07:06:10.107Z,87.76
2019-01-17T07:08:37.583Z,88.01
2019-01-17T07:11:05.086Z,88.01
2019-01-17T07:13:32.519Z,87.81
2019-01-17T07:15:59.973Z,88.01
2019-01-17T07:18:27.426Z,88.30
2019-01-17T07:20:54.936Z,88.30
2019-01-17T07:23:22.379Z,87.99
2019-01-17T07:25:49.843Z,87.82
2019-01-17T07:28:17.303Z,87.83
2019-01-17T07:30:44.730Z,87.09
2019-01-17T07:33:12.232Z,86.37
2019-01-17T07:35:39.651Z,85.82
2019-01-17T07:38:07.885Z,85.53
2019-01-17T07:40:35.323Z,85.18
2019-01-17T07:43:02.750Z,85.45
2019-01-17T07:45:30.611Z,85.15
2019-01-17T07:47:58.157Z,85.15
2019-01-17T07:50:25.672Z,85.04
2019-01-17T07:52:53.269Z,85.41
2019-01-17T07:55:20.739Z,84.94
2019-01-17T07:57:48.193Z,87.15
2019-01-17T08:00:18.367Z,86.15
2019-01-17T08:02:45.863Z,86.20
2019-01-17T08:05:13.393Z,86.14
2019-01-17T08:07:40.931Z,86.62
2019-01-17T08:10:10.550Z,86.98
2019-01-17T08:12:37.961Z,87.15
2019-01-17T08:15:06.131Z,87.22
2019-01-17T08:17:33.652Z,86.97
2019-01-17T08:20:01.046Z,86.97
2019-01-17T08:22:28.423Z,88.02
2019-01-17T08:24:55.887Z,88.02
2019-01-17T08:27:23.331Z,86.63
2019-01-17T08:29:50.715Z,87.13
2019-01-17T08:32:18.572Z,87.13
2019-01-17T08:34:46.103Z,86.56
2019-01-17T08:37:13.555Z,86.69
2019-01-17T08:39:40.967Z,85.88
2019-01-17T08:42:08.381Z,85.35
2019-01-17T08:44:40.592Z,85.45
2019-01-17T08:47:08.061Z,85.00
2019-01-17T08:49:39.226Z,85.00
2019-01-17T08:52:09.797Z,85.21
2019-01-17T08:54:37.216Z,85.21
2019-01-17T08:57:05.799Z,85.02
2019-01-17T08:59:33.336Z,84.29
2019-01-17T09:02:00.732Z,84.29
2019-01-17T09:04:28.183Z,84.72
2019-01-17T09:06:55.658Z,85.98
2019-01-17T09:09:23.304Z,84.79
2019-01-17T09:11:50.804Z,84.81
2019-01-17T09:14:18.319Z,84.65
2019-01-17T09:16:45.805Z,85.06
2019-01-17T09:19:13.365Z,85.06
2019-01-17T09:21:40.991Z,84.71
2019-01-17T09:24:08.391Z,85.02
2019-01-17T09:26:35.873Z,86.64
2019-01-17T09:29:03.616Z,86.64
2019-01-17T09:31:32.464Z,85.37
2019-01-17T09:33:59.991Z,84.88
2019-01-17T09:36:27.409Z,84.63
2019-01-17T09:38:54.859Z,84.58
2019-01-17T09:41:22.247Z,84.25
2019-01-17T09:43:49.672Z,84.44
2019-01-17T09:46:17.154Z,84.59
2019-01-17T09:48:44.595Z,85.69
2019-01-17T09:51:12.212Z,84.46
2019-01-17T09:53:39.624Z,84.15
2019-01-17T09:56:08.099Z,83.91
2019-01-17T09:58:35.897Z,83.31
2019-01-17T10:01:03.583Z,84.10
2019-01-17T10:03:31.051Z,84.72
2019-01-17T10:05:58.523Z,83.73
2019-01-17T10:08:26.903Z,83.53
2019-01-17T10:10:54.340Z,83.58
2019-01-17T10:13:22.446Z,83.14
2019-01-17T10:16:09.091Z,83.63
2019-01-17T10:19:02.636Z,84.22
2019-01-17T10:22:08.935Z,84.61
2019-01-17T10:25:10.211Z,84.43
2019-01-17T10:27:56.886Z,84.45
2019-01-17T10:30:42.704Z,83.63
2019-01-17T10:33:41.592Z,84.23
2019-01-17T10:36:45.091Z,83.89
2019-01-17T10:40:09.585Z,83.76
2019-01-17T10:43:08.009Z,83.07
2019-01-17T10:46:04.905Z,84.68
2019-01-17T10:49:06.175Z,83.83
2019-01-17T10:52:15.331Z,84.37
2019-01-17T10:55:44.995Z,84.15
2019-01-17T10:58:50.331Z,84.65
2019-01-17T11:02:14.408Z,84.79
2019-01-17T11:05:39.891Z,84.79
2019-01-17T11:08:58.032Z,83.86
2019-01-17T11:11:57.313Z,84.86
2019-01-17T11:15:21.731Z,85.40
2019-01-17T11:18:40.033Z,84.60
2019-01-17T11:21:40.324Z,84.14
2019-01-17T11:24:24.392Z,84.37
2019-01-17T11:27:27.758Z,83.79
2019-01-17T11:30:05.813Z,84.96
2019-01-17T11:32:58.236Z,84.97
2019-01-17T11:35:51.823Z,84.37
2019-01-17T11:38:44.935Z,83.81
2019-01-17T11:41:38.101Z,83.71
2019-01-17T11:44:25.380Z,83.71
2019-01-17T11:47:40.479Z,82.39
2019-01-17T11:50:46.745Z,83.06
2019-01-17T11:53:49.598Z,84.43
2019-01-17T11:57:00.801Z,83.68
2019-01-17T12:00:03.125Z,83.03
2019-01-17T12:03:05.846Z,82.70
2019-01-17T12:05:33.315Z,83.16
2019-01-17T12:08:00.785Z,81.52
2019-01-17T12:10:28.211Z,81.52
2019-01-17T12:12:56.708Z,81.62
2019-01-17T12:15:24.140Z,82.30
2019-01-17T12:17:51.612Z,82.66
2019-01-17T12:20:19.052Z,83.26
2019-01-17T12:22:46.476Z,83.81
2019-01-17T12:25:13.891Z,85.05
2019-01-17T12:27:46.291Z,84.89
2019-01-17T12:30:14.293Z,84.61
2019-01-17T12:32:41.856Z,84.14
2019-01-17T12:38:11.904Z,85.38
2019-01-17T12:40:39.374Z,85.92
2019-01-17T12:43:07.103Z,85.92
2019-01-17T12:46:12.031Z,86.28
2019-01-17T12:48:39.800Z,86.16
2019-01-17T12:51:07.386Z,85.08
2019-01-17T12:53:35.059Z,85.35
2019-01-17T12:56:02.880Z,85.18
2019-01-17T12:58:30.359Z,84.81
2019-01-17T13:01:00.815Z,84.81
2019-01-17T13:03:28.387Z,86.29
2019-01-17T13:05:56.633Z,85.81
2019-01-17T13:08:24.689Z,85.81
2019-01-17T13:11:02.095Z,85.85
2019-01-17T13:13:29.494Z,86.46
2019-01-17T13:15:57.932Z,86.82
2019-01-17T13:18:25.348Z,87.17
2019-01-17T13:20:52.765Z,87.67
2019-01-17T13:23:20.252Z,87.22
2019-01-17T13:25:47.657Z,86.44
2019-01-17T13:28:15.114Z,86.46
2019-01-17T13:30:42.624Z,86.05
2019-01-17T13:33:10.204Z,86.39
2019-01-17T13:35:37.705Z,87.17
2019-01-17T13:38:05.179Z,87.67
2019-01-17T13:40:32.611Z,87.49
2019-01-17T13:43:00.035Z,87.21
2019-01-17T13:45:27.492Z,86.69
2019-01-17T13:47:54.992Z,86.44
2019-01-17T13:50:22.485Z,86.27
2019-01-17T13:52:49.952Z,86.77
2019-01-17T13:55:18.715Z,87.11
2019-01-17T13:57:46.283Z,87.40
2019-01-17T14:00:16.405Z,86.31
2019-01-17T14:02:43.977Z,86.26
2019-01-17T14:05:11.626Z,85.60
2019-01-17T14:07:39.192Z,85.75
2019-01-17T14:10:07.682Z,85.92
2019-01-17T14:12:35.266Z,85.87
2019-01-17T14:15:03.960Z,86.38
2019-01-17T14:17:31.413Z,86.67
2019-01-17T14:19:58.891Z,86.91
2019-01-17T14:22:26.371Z,86.43
2019-01-17T14:24:53.882Z,86.54
2019-01-17T14:27:21.415Z,86.75
2019-01-17T14:29:48.847Z,87.66
2019-01-17T14:32:16.302Z,87.88
2019-01-17T14:34:43.768Z,87.69
2019-01-17T14:37:11.227Z,87.26
2019-01-17T14:39:38.760Z,87.32
2019-01-17T14:42:06.231Z,86.97
2019-01-17T14:44:33.689Z,87.23
2019-01-17T14:47:01.172Z,87.47
2019-01-17T14:49:28.630Z,87.23
2019-01-17T14:51:56.088Z,87.30
2019-01-17T14:54:23.532Z,87.45
2019-01-17T14:56:50.971Z,86.89
2019-01-17T14:59:18.485Z,87.21
2019-01-17T15:01:46.009Z,86.98
2019-01-17T15:04:13.513Z,86.49
2019-01-17T15:06:41.003Z,86.19
2019-01-17T15:09:08.463Z,85.68
2019-01-17T15:11:35.883Z,86.20
2019-01-17T15:14:03.374Z,86.58
2019-01-17T15:16:30.826Z,86.18
2019-01-17T15:18:58.256Z,86.32
2019-01-17T15:21:25.790Z,86.50
2019-01-17T15:23:53.204Z,86.95
2019-01-17T15:26:20.622Z,86.45
2019-01-17T15:28:48.106Z,86.14
2019-01-17T15:31:15.597Z,86.08
2019-01-17T15:33:43.003Z,85.73
2019-01-17T15:36:10.443Z,86.46
2019-01-17T15:38:37.884Z,86.54
2019-01-17T15:41:05.403Z,86.26
2019-01-17T15:43:32.962Z,86.44
2019-01-17T15:46:00.388Z,86.48
2019-01-17T15:48:27.865Z,86.87
2019-01-17T15:50:55.388Z,85.80
2019-01-17T15:53:22.934Z,84.87
2019-01-17T15:55:50.383Z,84.82
2019-01-17T15:58:17.835Z,85.88
2019-01-17T16:00:45.376Z,85.48
2019-01-17T16:03:13.172Z,84.93
2019-01-17T16:05:40.626Z,85.31
2019-01-17T16:08:08.105Z,84.23
2019-01-17T16:10:35.668Z,83.89
2019-01-17T16:13:03.067Z,83.36
2019-01-17T16:15:30.565Z,83.16
2019-01-17T16:17:58.044Z,83.63
2019-01-17T16:20:25.435Z,82.61
2019-01-17T16:22:53.056Z,80.60
2019-01-17T16:25:20.471Z,79.94
2019-01-17T16:27:52.917Z,80.29
2019-01-17T16:30:19.711Z,81.38
2019-01-17T16:32:47.263Z,82.96
2019-01-17T16:35:14.922Z,85.05
2019-01-17T16:37:45.344Z,84.71
2019-01-17T16:40:13.208Z,84.08
2019-01-17T16:42:40.664Z,83.66
2019-01-17T16:45:09.991Z,81.78
2019-01-17T16:47:37.497Z,82.27
2019-01-17T16:50:09.665Z,82.72
2019-01-17T16:52:37.108Z,81.92
2019-01-17T16:55:04.936Z,81.30
2019-01-17T16:57:34.634Z,81.03
2019-01-17T17:00:02.172Z,81.38
2019-01-17T17:02:29.656Z,81.44
2019-01-17T17:04:57.091Z,82.34
2019-01-17T17:07:24.603Z,82.40
2019-01-17T17:09:52.093Z,82.19
2019-01-17T17:12:19.527Z,82.59
2019-01-17T17:14:46.958Z,83.07
2019-01-17T17:17:14.468Z,83.37
2019-01-17T17:19:41.957Z,83.08
2019-01-17T17:22:09.386Z,83.98
2019-01-17T17:24:36.854Z,85.25
2019-01-17T17:27:04.263Z,83.66
2019-01-17T17:29:32.308Z,83.87
2019-01-17T17:31:59.795Z,82.77
2019-01-17T17:34:27.214Z,83.74
2019-01-17T17:36:54.647Z,83.11
2019-01-17T17:39:22.083Z,85.48
2019-01-17T17:41:49.531Z,86.46
2019-01-17T17:44:17.061Z,86.19
2019-01-17T17:46:44.526Z,84.34
2019-01-17T17:49:11.994Z,85.22
2019-01-17T17:51:39.623Z,83.70
2019-01-17T17:54:07.051Z,84.76
2019-01-17T17:56:34.497Z,83.82
2019-01-17T17:59:02.272Z,82.21
2019-01-17T18:01:33.282Z,82.52
2019-01-17T18:04:01.365Z,83.84
2019-01-17T18:06:29.048Z,83.82
2019-01-17T18:08:56.561Z,86.61
2019-01-17T18:11:23.986Z,86.03
2019-01-17T18:13:51.571Z,83.07
2019-01-17T18:16:19.546Z,83.30
2019-01-17T18:18:47.105Z,84.38
2019-01-17T18:21:14.598Z,84.28
2019-01-17T18:23:42.051Z,84.22
2019-01-17T18:26:09.712Z,84.08
2019-01-17T18:28:37.372Z,85.83
2019-01-17T18:31:04.815Z,86.84
2019-01-17T18:33:32.462Z,87.07
2019-01-17T18:36:00.177Z,87.30
2019-01-17T18:38:28.084Z,87.34
2019-01-17T18:40:56.032Z,87.47
2019-01-17T18:43:23.832Z,88.29
2019-01-17T18:45:51.647Z,86.54
2019-01-17T18:48:19.548Z,86.15
2019-01-17T18:50:47.237Z,85.68
2019-01-17T18:53:15.197Z,86.34
2019-01-17T18:55:43.197Z,87.40
2019-01-17T18:58:15.520Z,85.93
2019-01-17T19:00:41.052Z,84.87
2019-01-17T19:03:09.063Z,85.22
2019-01-17T19:05:37.169Z,85.56
2019-01-17T19:08:05.165Z,86.45
2019-01-17T19:10:33.352Z,86.71
2019-01-17T19:13:01.314Z,87.20
2019-01-17T19:15:31.562Z,88.13
2019-01-17T19:17:59.862Z,89.27
2019-01-17T19:20:27.701Z,89.14
2019-01-17T19:22:55.612Z,88.41
2019-01-17T19:25:23.635Z,87.54
2019-01-17T19:27:51.650Z,88.09
2019-01-17T19:30:21.555Z,87.89
2019-01-17T19:32:49.639Z,89.33
2019-01-17T19:35:20.378Z,89.79
2019-01-17T19:37:48.438Z,90.30
2019-01-17T19:40:21.100Z,90.63
2019-01-17T19:42:49.089Z,91.04
2019-01-17T19:45:20.143Z,91.28
2019-01-17T19:47:48.089Z,91.27
2019-01-17T19:50:36.639Z,91.25
2019-01-17T19:53:05.859Z,91.44
2019-01-17T19:55:34.040Z,91.65
2019-01-17T19:58:02.068Z,91.79
2019-01-17T20:00:30.104Z,91.85
2019-01-17T20:02:58.060Z,91.95
2019-01-17T20:05:27.505Z,92.06
2019-01-17T20:07:55.578Z,91.81
2019-01-17T20:10:25.910Z,91.46
2019-01-17T20:12:53.855Z,91.33
2019-01-17T20:15:21.887Z,91.38
2019-01-17T20:17:50.641Z,91.56
2019-01-17T20:20:18.724Z,91.65
2019-01-17T20:22:46.775Z,91.72
2019-01-17T20:25:15.110Z,91.61
2019-01-17T20:27:43.071Z,91.65
2019-01-17T20:30:16.719Z,91.79
2019-01-17T20:32:44.700Z,91.85
2019-01-17T20:35:12.856Z,91.86
2019-01-17T20:37:40.831Z,91.85
2019-01-17T20:40:10.582Z,91.88
2019-01-17T20:42:39.135Z,91.96
2019-01-17T20:45:08.961Z,91.94
2019-01-17T20:47:36.986Z,92.01
2019-01-17T20:50:07.772Z,92.12
2019-01-17T20:52:35.578Z,92.19
2019-01-17T20:55:04.224Z,92.29
2019-01-17T20:57:32.438Z,92.30
2019-01-17T21:00:00.327Z,92.41
2019-01-17T21:02:28.231Z,92.48
2019-01-17T21:04:56.189Z,92.49
2019-01-17T21:07:24.013Z,92.44
2019-01-17T21:09:51.849Z,92.44
2019-01-17T21:12:19.776Z,92.48
2019-01-17T21:14:47.470Z,92.43
2019-01-17T21:17:15.195Z,92.50
2019-01-17T21:19:42.966Z,92.49
2019-01-17T21:22:10.571Z,92.46
2019-01-17T21:24:38.054Z,92.49
2019-01-17T21:27:05.484Z,92.49
2019-01-17T21:29:32.991Z,92.55
2019-01-17T21:32:00.382Z,92.57
2019-01-17T21:34:27.863Z,92.59
2019-01-17T21:36:55.304Z,92.53
2019-01-17T21:39:22.769Z,92.57
2019-01-17T21:41:50.244Z,92.53
2019-01-17T21:44:17.639Z,92.54
2019-01-17T21:46:45.166Z,92.51
2019-01-17T21:49:12.669Z,92.52
2019-01-17T21:51:40.061Z,92.53
2019-01-17T21:54:07.492Z,92.51
2019-01-17T21:56:34.943Z,92.44
2019-01-17T21:59:02.361Z,92.48
2019-01-17T22:01:29.781Z,92.51
2019-01-17T22:03:57.256Z,92.58
2019-01-17T22:06:24.711Z,92.53
2019-01-17T22:08:52.229Z,92.64
2019-01-17T22:11:19.652Z,92.63
2019-01-17T22:13:50.711Z,92.64
2019-01-17T22:16:19.383Z,92.59
2019-01-17T22:18:46.806Z,92.56
2019-01-17T22:21:14.221Z,92.59
2019-01-17T22:23:41.626Z,92.60
2019-01-17T22:26:09.045Z,92.46
2019-01-17T22:28:36.422Z,92.43
2019-01-17T22:31:04.103Z,92.41
2019-01-17T22:33:31.514Z,92.29
2019-01-17T22:35:58.946Z,92.35
2019-01-17T22:38:26.383Z,92.15
2019-01-17T22:40:53.911Z,92.05
2019-01-17T22:43:21.344Z,91.94
2019-01-17T22:45:48.806Z,91.99
2019-01-17T22:48:16.217Z,92.05
2019-01-17T22:50:43.671Z,91.97
2019-01-17T22:53:11.144Z,91.82
2019-01-17T22:55:38.535Z,91.78
2019-01-17T22:58:05.925Z,91.85
2019-01-17T23:01:01.262Z,91.80
2019-01-17T23:03:40.308Z,91.52
2019-01-17T23:06:07.814Z,91.48
2019-01-17T23:08:35.273Z,91.65
2019-01-17T23:11:03.261Z,91.76
2019-01-17T23:13:31.126Z,91.88
2019-01-17T23:15:58.577Z,91.80
2019-01-17T23:18:25.991Z,91.91
2019-01-17T23:20:54.003Z,92.00
2019-01-17T23:23:21.437Z,92.16
2019-01-17T23:25:48.846Z,92.26
2019-01-17T23:28:16.331Z,92.17
2019-01-17T23:30:43.714Z,92.03
2019-01-17T23:33:11.148Z,92.04
2019-01-17T23:35:38.623Z,92.18
2019-01-17T23:38:06.023Z,92.20
2019-01-17T23:40:33.423Z,92.17
2019-01-17T23:43:00.850Z,92.14
2019-01-17T23:45:28.242Z,92.13
2019-01-17T23:47:55.731Z,92.16
2019-01-17T23:50:23.154Z,91.45
2019-01-17T23:52:50.549Z,91.12
2019-01-17T23:55:18.003Z,90.67
2019-01-17T23:57:45.403Z,91.15
